Time;durP1;ratioP1;P1;durP2;ratioP2;P2;SDS_P1;SDS_P2;PMS_P1;PMS_P2;Temp;Humidity;BMP_temperature;BMP_pressure;BME280_temperature;BME280_humidity;BME280_pressure;Samples;Min_cycle;Max_cycle;Signal;HPM_P1;HPM_P2
2022/07/12 00:01:29;;;;;;;1.30;0.20;;;;;;;20.94;100.00;100334.59;7401413;19;20006;-90
2022/07/12 00:03:55;;;;;;;0.30;0.20;;;;;;;20.91;100.00;100341.34;7402665;19;20022;-91
2022/07/12 00:06:22;;;;;;;0.73;0.38;;;;;;;20.90;100.00;100344.69;7399165;19;20013;-90
2022/07/12 00:08:48;;;;;;;1.48;0.32;;;;;;;20.90;100.00;100344.69;7399757;19;20070;-91
2022/07/12 00:11:14;;;;;;;0.90;0.35;;;;;;;20.82;100.00;100341.72;7398000;19;20042;-90
2022/07/12 00:13:40;;;;;;;1.25;0.30;;;;;;;20.83;100.00;100346.09;7400779;19;20025;-91
2022/07/12 00:16:07;;;;;;;0.82;0.20;;;;;;;20.83;100.00;100336.81;7399431;19;20037;-91
2022/07/12 00:18:33;;;;;;;0.28;0.20;;;;;;;20.79;100.00;100339.94;7401333;19;20123;-91
2022/07/12 00:20:59;;;;;;;2.40;0.28;;;;;;;20.79;100.00;100334.28;7401686;19;20048;-90
2022/07/12 00:23:25;;;;;;;0.57;0.20;;;;;;;20.75;100.00;100339.47;7401611;19;20015;-91
2022/07/12 00:25:51;;;;;;;1.85;0.20;;;;;;;20.70;100.00;100331.84;7400100;19;20018;-91
2022/07/12 00:28:18;;;;;;;0.30;0.20;;;;;;;20.65;100.00;100340.38;7397315;19;20432;-91
2022/07/12 00:30:47;;;;;;;1.52;0.32;;;;;;;20.62;100.00;100342.22;7401402;19;20010;-91
2022/07/12 00:33:13;;;;;;;0.88;0.13;;;;;;;20.59;100.00;100340.47;7398683;19;20036;-89
2022/07/12 00:35:39;;;;;;;0.95;0.10;;;;;;;20.57;100.00;100340.25;7404909;19;20344;-89
2022/07/12 00:38:05;;;;;;;0.75;0.30;;;;;;;20.57;100.00;100340.25;7400862;19;20026;-90
2022/07/12 00:40:31;;;;;;;1.77;0.20;;;;;;;20.63;100.00;100332.44;7405140;19;20038;-89
2022/07/12 00:42:57;;;;;;;1.20;0.20;;;;;;;20.63;100.00;100335.28;7400430;19;20018;-90
2022/07/12 00:45:24;;;;;;;0.32;0.22;;;;;;;20.67;100.00;100335.72;7400423;19;20078;-90
2022/07/12 00:47:50;;;;;;;0.70;0.20;;;;;;;20.69;100.00;100327.47;7403645;19;20010;-89
2022/07/12 00:50:18;;;;;;;0.10;0.10;;;;;;;20.70;100.00;100325.41;7407452;19;20010;-90
2022/07/12 00:52:48;;;;;;;0.70;0.30;;;;;;;20.69;100.00;100332.34;7403627;19;20018;-90
2022/07/12 00:55:15;;;;;;;0.52;0.10;;;;;;;20.66;100.00;100337.03;7404604;19;20007;-90
2022/07/12 00:57:45;;;;;;;1.50;0.20;;;;;;;20.56;100.00;100338.69;7409674;19;20037;-90
2022/07/12 01:00:15;;;;;;;0.77;0.10;;;;;;;20.54;100.00;100341.28;7411704;19;20029;-90
2022/07/12 01:02:43;;;;;;;0.43;0.20;;;;;;;20.58;100.00;100335.31;7407703;19;20025;-91
2022/07/12 01:05:09;;;;;;;2.35;0.30;;;;;;;20.55;100.00;100336.41;7409204;19;20078;-90
2022/07/12 01:07:36;;;;;;;0.43;0.20;;;;;;;20.53;100.00;100336.19;7406466;19;20007;-90
2022/07/12 01:10:04;;;;;;;0.30;0.10;;;;;;;20.50;100.00;100332.34;7409048;19;20022;-89
2022/07/12 01:12:31;;;;;;;1.35;0.22;;;;;;;20.50;100.00;100335.19;7405053;19;20666;-86
2022/07/12 01:14:58;;;;;;;1.10;0.40;;;;;;;20.50;100.00;100332.34;7398948;19;20070;-87
2022/07/12 01:17:26;;;;;;;0.28;0.10;;;;;;;20.50;100.00;100334.41;7402305;19;20078;-87
2022/07/12 01:19:55;;;;;;;0.63;0.30;;;;;;;20.48;100.00;100331.34;7403280;19;20031;-87
2022/07/12 01:22:29;;;;;;;1.23;0.32;;;;;;;20.45;100.00;100333.16;7402308;19;20011;-88
2022/07/12 01:24:56;;;;;;;0.40;0.10;;;;;;;20.40;100.00;100336.81;7403184;19;20026;-88
2022/07/12 01:27:22;;;;;;;1.40;0.20;;;;;;;20.45;100.00;100338.84;7398068;19;20015;-87
2022/07/12 01:29:49;;;;;;;0.73;0.30;;;;;;;20.45;100.00;100333.16;7405213;19;20011;-87
2022/07/12 01:32:24;;;;;;;1.27;0.15;;;;;;;20.47;100.00;100330.56;7399816;19;20031;-86
2022/07/12 01:34:52;;;;;;;2.00;0.40;;;;;;;20.45;100.00;100330.34;7400554;19;20018;-86
2022/07/12 01:37:19;;;;;;;0.88;0.25;;;;;;;20.43;100.00;100330.09;7400477;19;20029;-87
2022/07/12 01:39:48;;;;;;;0.25;0.25;;;;;;;20.46;100.00;100328.28;7402128;19;20014;-88
2022/07/12 01:42:15;;;;;;;0.65;0.38;;;;;;;20.43;100.00;100332.94;7400718;19;20046;-87
2022/07/12 01:44:41;;;;;;;1.25;0.40;;;;;;;20.43;100.00;100330.09;7399897;19;20026;-88
2022/07/12 01:47:08;;;;;;;0.30;0.15;;;;;;;20.41;100.00;100332.72;7398636;19;20006;-88
2022/07/12 01:49:34;;;;;;;3.95;1.33;;;;;;;20.39;100.00;100330.41;7399948;19;20019;-86
2022/07/12 01:52:00;;;;;;;0.70;0.10;;;;;;;20.45;100.00;100330.34;7402620;19;20038;-87
2022/07/12 01:54:27;;;;;;;0.22;0.20;;;;;;;20.43;100.00;100332.94;7398747;19;20479;-87
2022/07/12 01:56:54;;;;;;;0.40;0.10;;;;;;;20.39;100.00;100338.13;7397086;19;20018;-86
2022/07/12 01:59:21;;;;;;;0.70;0.20;;;;;;;20.39;100.00;100352.28;7397837;19;20060;-87
2022/07/12 02:01:48;;;;;;;1.10;0.32;;;;;;;20.39;100.00;100352.28;7397749;19;20089;-86
2022/07/12 02:04:18;;;;;;;1.55;0.30;;;;;;;20.37;100.00;100352.06;7396071;19;20035;-87
2022/07/12 02:06:45;;;;;;;4.28;0.20;;;;;;;20.37;100.00;100354.88;7395047;19;20046;-86
2022/07/12 02:09:12;;;;;;;0.50;0.45;;;;;;;20.33;100.00;100360.06;7398137;19;20078;-87
2022/07/12 02:11:39;;;;;;;0.10;0.10;;;;;;;20.33;100.00;100366.50;7396103;19;20015;-87
2022/07/12 02:14:05;;;;;;;1.65;0.10;;;;;;;20.29;100.00;100360.34;7397214;19;20018;-86
2022/07/12 02:16:32;;;;;;;0.63;0.05;;;;;;;20.28;100.00;100363.72;7395534;19;20495;-86
2022/07/12 02:18:58;;;;;;;0.75;0.28;;;;;;;20.23;100.00;100367.38;7399343;19;20006;-86
2022/07/12 02:21:25;;;;;;;0.30;0.10;;;;;;;20.22;100.00;100365.84;7401792;19;20021;-87
2022/07/12 02:23:51;;;;;;;1.75;0.30;;;;;;;20.19;100.00;100372.53;7395251;19;20014;-87
2022/07/12 02:26:18;;;;;;;0.95;0.45;;;;;;;20.13;100.00;100369.75;7394852;19;20015;-87
2022/07/12 02:28:44;;;;;;;2.13;0.17;;;;;;;20.11;100.00;100378.00;7397330;19;20002;-87
2022/07/12 02:31:10;;;;;;;1.42;0.95;;;;;;;20.08;100.00;100370.56;7393679;19;20017;-85
2022/07/12 02:33:36;;;;;;;0.47;0.10;;;;;;;20.06;100.00;100375.22;7393793;19;20067;-85
2022/07/12 02:36:03;;;;;;;0.82;0.30;;;;;;;20.05;100.00;100373.69;7393415;19;20023;-86
2022/07/12 02:38:29;;;;;;;6.03;0.65;;;;;;;20.05;100.00;100368.81;7395507;19;20006;-85
2022/07/12 02:40:55;;;;;;;0.73;0.43;;;;;;;20.08;100.00;100369.78;7400549;19;20868;-85
2022/07/12 02:43:26;;;;;;;0.90;0.40;;;;;;;20.07;100.00;100362.63;7396893;19;20017;-85
2022/07/12 02:45:55;;;;;;;4.13;0.20;;;;;;;20.10;100.00;100359.50;7393480;19;20054;-85
2022/07/12 02:48:22;;;;;;;1.30;0.10;;;;;;;20.10;100.00;100350.25;7392910;19;20029;-85
2022/07/12 02:50:48;;;;;;;0.85;0.28;;;;;;;20.07;100.00;100346.44;7394799;19;20035;-86
2022/07/12 02:53:15;;;;;;;0.75;0.30;;;;;;;20.05;100.00;100342.59;7393941;19;20077;-85
2022/07/12 02:55:41;;;;;;;0.47;0.15;;;;;;;20.03;100.00;100345.19;7393262;19;20043;-85
2022/07/12 02:58:08;;;;;;;0.28;0.20;;;;;;;20.01;100.00;100351.34;7394013;19;20002;-85
2022/07/12 03:00:35;;;;;;;2.53;0.50;;;;;;;19.97;100.00;100361.41;7399632;19;20024;-86
2022/07/12 03:03:01;;;;;;;0.40;0.30;;;;;;;19.93;100.00;100372.25;7397091;19;20037;-85
2022/07/12 03:05:27;;;;;;;0.50;0.15;;;;;;;19.88;100.00;100370.25;7394839;19;20421;-85
2022/07/12 03:07:53;;;;;;;0.95;0.40;;;;;;;19.83;100.00;100371.84;7393618;19;20041;-84
2022/07/12 03:10:20;;;;;;;0.65;0.35;;;;;;;19.84;100.00;100369.78;7396397;19;20006;-85
2022/07/12 03:12:46;;;;;;;0.60;0.30;;;;;;;19.80;100.00;100370.06;7394646;19;20021;-85
2022/07/12 03:15:12;;;;;;;2.70;0.20;;;;;;;19.76;100.00;100375.25;7393387;19;20022;-85
2022/07/12 03:17:38;;;;;;;0.45;0.13;;;;;;;19.73;100.00;100372.72;7396544;19;20886;-88
2022/07/12 03:20:11;;;;;;;0.50;0.35;;;;;;;19.77;100.00;100373.19;7399369;19;20039;-87
2022/07/12 03:22:38;;;;;;;0.60;0.20;;;;;;;19.80;100.00;100369.28;7394481;19;20011;-88
2022/07/12 03:25:04;;;;;;;0.30;0.20;;;;;;;19.57;100.00;100369.50;7393385;19;20018;-87
2022/07/12 03:27:33;;;;;;;0.45;0.30;;;;;;;19.62;100.00;100382.03;7392557;19;20019;-86
2022/07/12 03:29:59;;;;;;;0.52;0.28;;;;;;;19.72;100.00;100371.16;7397854;19;20031;-85
2022/07/12 03:32:26;;;;;;;0.20;0.10;;;;;;;19.73;100.00;100367.06;7394261;19;20026;-85
2022/07/12 03:34:52;;;;;;;0.73;0.20;;;;;;;19.74;100.00;100365.75;7393440;19;20096;-85
2022/07/12 03:37:18;;;;;;;0.88;0.20;;;;;;;19.72;100.00;100362.69;7393659;19;20024;-84
2022/07/12 03:39:44;;;;;;;0.10;0.10;;;;;;;19.76;100.00;100357.50;7396385;19;20011;-85
2022/07/12 03:42:13;;;;;;;0.43;0.10;;;;;;;19.83;100.00;100354.09;7395492;19;20333;-84
2022/07/12 03:44:39;;;;;;;0.30;0.30;;;;;;;19.81;100.00;100349.00;7393199;19;20045;-86
2022/07/12 03:47:06;;;;;;;0.75;0.30;;;;;;;19.82;100.00;100355.38;7393589;19;20069;-86
2022/07/12 03:49:32;;;;;;;1.27;0.52;;;;;;;19.90;100.00;100364.84;7395911;19;20024;-85
2022/07/12 03:51:58;;;;;;;1.10;0.22;;;;;;;19.89;100.00;100354.81;7399382;19;20015;-85
2022/07/12 03:54:24;;;;;;;0.85;0.47;;;;;;;19.88;100.00;100350.47;7390416;19;20022;-85
2022/07/12 03:59:35;;;;;;;0.77;0.32;;;;;;;19.77;100.00;100356.22;7396684;19;20010;-86
2022/07/12 04:02:04;;;;;;;0.52;0.10;;;;;;;19.73;100.00;100352.94;7393611;19;20011;-85
2022/07/12 04:04:30;;;;;;;3.60;0.82;;;;;;;19.78;100.00;100355.69;7393364;19;20035;-86
2022/07/12 04:06:56;;;;;;;1.35;0.43;;;;;;;19.80;100.00;100353.09;7392299;19;20025;-85
2022/07/12 04:09:22;;;;;;;0.80;0.20;;;;;;;19.79;100.00;100345.94;7394977;19;20019;-86
2022/07/12 04:11:49;;;;;;;0.30;0.30;;;;;;;19.77;100.00;100342.09;7393081;19;20022;-85
2022/07/12 04:14:15;;;;;;;1.48;0.45;;;;;;;19.87;100.00;100351.75;7392007;19;20014;-85
2022/07/12 04:16:41;;;;;;;5.68;0.73;;;;;;;19.87;100.00;100352.53;7389822;19;20022;-86
2022/07/12 04:19:10;;;;;;;2.95;0.60;;;;;;;19.79;100.00;100340.28;7393257;19;20481;-86
2022/07/12 04:21:37;;;;;;;0.85;0.50;;;;;;;19.82;100.00;100321.47;7395987;19;20087;-86
2022/07/12 04:24:05;;;;;;;1.20;0.30;;;;;;;19.85;100.00;100323.25;7395515;19;20018;-86
2022/07/12 04:26:31;;;;;;;1.63;0.38;;;;;;;19.77;100.00;100347.75;7392259;19;20393;-86
2022/07/12 04:28:58;;;;;;;2.00;0.30;;;;;;;19.79;100.00;100334.63;7390875;19;20022;-86
2022/07/12 04:31:25;;;;;;;1.17;0.35;;;;;;;19.83;100.00;100346.41;7392083;19;20371;-86
2022/07/12 04:33:51;;;;;;;4.88;1.08;;;;;;;19.82;100.00;100349.75;7399834;19;20400;-86
2022/07/12 04:36:17;;;;;;;1.38;0.38;;;;;;;19.82;100.00;100344.09;7397305;19;20002;-86
2022/07/12 04:38:43;;;;;;;0.70;0.20;;;;;;;19.62;100.00;100360.19;7400467;19;20022;-85
2022/07/12 04:41:09;;;;;;;1.52;0.32;;;;;;;19.77;100.00;100364.72;7399654;19;20016;-86
2022/07/12 04:43:36;;;;;;;0.68;0.40;;;;;;;19.76;100.00;100357.50;7401852;19;20006;-86
2022/07/12 04:46:06;;;;;;;2.33;0.50;;;;;;;19.81;100.00;100354.66;7399455;19;20007;-86
2022/07/12 04:48:32;;;;;;;;;;;;;;;19.90;100.00;100347.88;7400495;19;20019;-86
2022/07/12 04:50:58;;;;;;;2.67;0.20;;;;;;;19.87;100.00;100351.75;7397358;19;19997;-85
2022/07/12 04:53:24;;;;;;;1.55;0.13;;;;;;;19.92;100.00;100370.75;7397764;19;20464;-86
2022/07/12 04:55:51;;;;;;;0.32;0.20;;;;;;;19.93;100.00;100355.28;7397059;19;20024;-85
2022/07/12 04:58:17;;;;;;;3.45;0.30;;;;;;;19.95;100.00;100359.13;7400179;19;20011;-86
2022/07/12 05:00:43;;;;;;;0.35;0.30;;;;;;;19.97;100.00;100348.06;7405367;19;20018;-86
2022/07/12 05:03:09;;;;;;;0.82;0.52;;;;;;;20.02;100.00;100352.13;7398823;19;20022;-86
2022/07/12 05:05:35;;;;;;;0.22;0.20;;;;;;;20.07;100.00;100349.25;7399011;19;20343;-85
2022/07/12 05:08:01;;;;;;;2.05;0.88;;;;;;;20.08;100.00;100352.84;7396856;19;20025;-86
2022/07/12 05:10:28;;;;;;;0.77;0.17;;;;;;;20.14;100.00;100345.06;7401174;19;20049;-87
2022/07/12 05:12:54;;;;;;;0.32;0.15;;;;;;;20.15;100.00;100349.44;7396641;19;20464;-91
2022/07/12 05:15:20;;;;;;;0.73;0.20;;;;;;;20.18;100.00;100354.03;7395711;19;20031;-86
2022/07/12 05:17:46;;;;;;;1.40;0.40;;;;;;;20.20;100.00;100357.09;7396979;19;20022;-84
2022/07/12 05:20:12;;;;;;;0.38;0.15;;;;;;;20.25;100.00;100364.75;7399784;19;20006;-84
2022/07/12 05:22:41;;;;;;;0.88;0.35;;;;;;;20.27;100.00;100359.38;7394238;19;20018;-83
2022/07/12 05:25:08;;;;;;;0.95;0.50;;;;;;;20.25;100.00;100359.09;7395160;19;20036;-84
2022/07/12 05:27:35;;;;;;;0.75;0.10;;;;;;;20.27;100.00;100359.38;7393321;19;20448;-84
2022/07/12 05:30:03;;;;;;;0.20;0.10;;;;;;;20.24;100.00;100366.06;7394961;19;20018;-86
2022/07/12 05:32:29;;;;;;;1.15;0.45;;;;;;;20.26;100.00;100377.63;7392649;19;20041;-85
2022/07/12 05:34:55;;;;;;;0.38;0.20;;;;;;;20.27;100.00;100373.50;7390687;19;20031;-85
2022/07/12 05:37:24;;;;;;;0.85;0.50;;;;;;;20.29;100.00;100365.25;7390494;19;20345;-85
2022/07/12 05:39:52;;;;;;;1.15;0.43;;;;;;;20.29;100.00;100365.25;7397552;19;20033;-84
2022/07/12 05:42:18;;;;;;;0.75;0.20;;;;;;;20.37;100.00;100371.84;7393772;19;20486;-85
2022/07/12 05:44:44;;;;;;;0.82;0.20;;;;;;;20.41;100.00;100372.31;7394971;19;20034;-85
2022/07/12 05:47:10;;;;;;;2.05;0.50;;;;;;;20.42;100.00;100367.44;7398439;19;20014;-85
2022/07/12 05:49:37;;;;;;;4.93;0.70;;;;;;;20.37;100.00;100371.84;7401903;19;20074;-85
2022/07/12 05:54:48;;;;;;;4.78;0.20;;;;;;;20.35;100.00;100374.44;7398098;19;20040;-84
2022/07/12 05:57:15;;;;;;;2.22;0.77;;;;;;;20.40;100.00;100371.53;7393452;19;20025;-83
2022/07/12 05:59:42;;;;;;;1.58;0.20;;;;;;;20.40;100.00;100379.25;7397215;19;20487;-84
2022/07/12 06:02:09;;;;;;;0.47;0.10;;;;;;;20.44;100.00;100371.28;7395421;19;20500;-84
2022/07/12 06:04:36;;;;;;;0.98;0.32;;;;;;;20.41;100.00;100369.50;7396311;19;20014;-85
2022/07/12 06:07:03;;;;;;;0.75;0.55;;;;;;;20.43;100.00;100375.38;7394878;19;20023;-84
2022/07/12 06:09:29;;;;;;;2.75;0.30;;;;;;;20.50;100.00;100371.19;7395704;19;20030;-84
2022/07/12 06:11:55;;;;;;;0.43;0.13;;;;;;;20.55;100.00;100370.38;7395678;19;20086;-85
2022/07/12 06:14:21;;;;;;;1.45;0.73;;;;;;;20.57;100.00;100374.22;7393740;19;20015;-85
2022/07/12 06:16:47;;;;;;;1.42;0.30;;;;;;;20.62;100.00;100381.84;7392228;19;20021;-86
2022/07/12 06:19:14;;;;;;;1.98;0.47;;;;;;;20.66;100.00;100387.97;7395009;19;20019;-88
2022/07/12 06:21:40;;;;;;;0.43;0.22;;;;;;;20.73;100.00;100387.38;7397322;19;20023;-85
2022/07/12 06:24:07;;;;;;;1.20;0.10;;;;;;;20.81;100.00;100388.28;7395710;19;20049;-85
2022/07/12 06:26:33;;;;;;;0.65;0.22;;;;;;;20.89;100.00;100383.59;7391075;19;20464;-85
2022/07/12 06:28:59;;;;;;;1.10;0.50;;;;;;;20.94;100.00;100377.06;7391989;19;20094;-86
2022/07/12 06:31:25;;;;;;;0.10;0.00;;;;;;;21.01;100.00;100378.50;7393699;19;20011;-85
2022/07/12 06:33:52;;;;;;;0.52;0.52;;;;;;;21.10;100.00;100370.44;7395039;19;20013;-85
2022/07/12 06:36:18;;;;;;;0.30;0.10;;;;;;;21.16;100.00;100373.19;7391430;19;20018;-86
2022/07/12 06:38:44;;;;;;;0.15;0.03;;;;;;;21.20;100.00;100378.56;7399566;19;20017;-92
2022/07/12 06:41:10;;;;;;;0.63;0.10;;;;;;;21.23;100.00;100383.13;7399706;19;20081;-92
2022/07/12 06:43:36;;;;;;;0.25;0.10;;;;;;;21.29;100.00;100381.00;7396389;19;20025;-92
2022/07/12 06:46:02;;;;;;;0.30;0.10;;;;;;;21.36;100.00;100397.38;7396771;19;20018;-92
2022/07/12 06:48:28;;;;;;;0.68;0.10;;;;;;;21.48;100.00;100398.75;7395395;19;20086;-93
2022/07/12 06:50:55;;;;;;;0.55;0.32;;;;;;;21.53;100.00;100386.56;7396805;19;20348;-91
2022/07/12 06:53:21;;;;;;;0.10;0.10;;;;;;;21.58;100.00;100383.66;7397575;19;20026;-92
2022/07/12 06:55:47;;;;;;;3.53;0.20;;;;;;;21.67;100.00;100385.31;7396831;19;20035;-90
2022/07/12 06:58:13;;;;;;;0.57;0.10;;;;;;;21.76;100.00;100401.94;7397398;19;20018;-90
2022/07/12 07:00:40;;;;;;;1.45;0.65;;;;;;;21.90;100.00;100397.84;7401603;19;20018;-91
2022/07/12 07:03:06;;;;;;;0.20;0.13;;;;;;;22.02;100.00;100395.59;7399710;19;20018;-94
2022/07/12 07:05:32;;;;;;;0.43;0.25;;;;;;;22.14;100.00;100394.84;7398357;19;20329;-95
2022/07/12 07:07:58;;;;;;;1.00;0.32;;;;;;;22.23;100.00;100391.59;7396124;19;20014;-90
2022/07/12 07:10:24;;;;;;;1.70;0.25;;;;;;;22.32;100.00;100396.84;7400833;19;20536;-90
2022/07/12 07:12:50;;;;;;;0.95;0.10;;;;;;;22.40;100.00;100396.94;7395182;19;20018;-90
2022/07/12 07:15:17;;;;;;;0.20;0.13;;;;;;;22.46;100.00;100401.22;7397176;19;20019;-88
2022/07/12 07:17:43;;;;;;;1.48;0.35;;;;;;;22.50;100.00;100401.63;7399230;19;20015;-88
2022/07/12 07:20:10;;;;;;;3.70;0.22;;;;;;;22.56;100.00;100408.00;7398725;19;20026;-88
2022/07/12 07:22:37;;;;;;;0.60;0.20;;;;;;;22.55;100.00;100402.84;7397117;19;20041;-89
2022/07/12 07:25:04;;;;;;;0.22;0.05;;;;;;;22.59;100.00;100403.31;7396181;19;20007;-90
2022/07/12 07:27:30;;;;;;;1.48;0.47;;;;;;;22.64;100.00;100402.44;7394342;19;20019;-91
2022/07/12 07:32:41;;;;;;;0.43;0.20;;;;;;;22.86;100.00;100395.56;7397077;19;20010;-91
2022/07/12 07:35:08;;;;;;;0.30;0.10;;;;;;;22.95;100.00;100403.63;7397113;19;20086;-91
2022/07/12 07:37:34;;;;;;;2.55;0.40;;;;;;;23.15;100.00;100414.31;7395012;19;20023;-91
2022/07/12 07:40:01;;;;;;;1.25;0.20;;;;;;;23.30;100.00;100423.03;7399538;19;20484;-91
2022/07/12 07:42:27;;;;;;;0.88;0.50;;;;;;;23.42;100.00;100420.69;7394891;19;20081;-89
2022/07/12 07:44:53;;;;;;;0.73;0.35;;;;;;;23.51;100.00;100412.47;7391915;19;20418;-90
2022/07/12 07:47:19;;;;;;;1.85;0.28;;;;;;;23.61;100.00;100405.00;7395807;19;20675;-90
2022/07/12 07:49:45;;;;;;;0.52;0.10;;;;;;;23.58;100.00;100408.97;7398083;19;20031;-91
2022/07/12 07:52:11;;;;;;;0.65;0.10;;;;;;;23.61;100.00;100410.69;7399383;19;20029;-90
2022/07/12 07:54:38;;;;;;;0.82;0.20;;;;;;;23.67;100.00;100421.94;7395638;19;20021;-91
2022/07/12 07:57:04;;;;;;;0.10;0.00;;;;;;;23.70;100.00;100418.75;7392691;19;20353;-91
2022/07/12 07:59:31;;;;;;;0.60;0.10;;;;;;;23.75;100.00;100397.94;7399249;19;20037;-90
2022/07/12 08:01:57;;;;;;;0.40;0.30;;;;;;;23.85;100.00;100410.34;7394889;19;20495;-89
2022/07/12 08:04:23;;;;;;;3.38;0.20;;;;;;;24.00;100.00;100407.66;7393630;19;20560;-89
2022/07/12 08:06:49;;;;;;;0.88;0.10;;;;;;;24.12;100.00;100401.69;7393487;19;20010;-90
2022/07/12 08:09:16;;;;;;;0.52;0.20;;;;;;;24.22;100.00;100406.34;7395725;19;20014;-90
2022/07/12 08:11:42;;;;;;;0.10;0.00;;;;;;;24.33;100.00;100405.28;7394504;19;20026;-90
2022/07/12 08:14:09;;;;;;;0.75;0.05;;;;;;;24.43;100.00;100412.00;7393062;19;20042;-90
2022/07/12 08:16:35;;;;;;;0.57;0.22;;;;;;;24.48;100.00;100416.78;7392872;19;20014;-90
2022/07/12 08:19:03;;;;;;;1.95;0.22;;;;;;;24.50;100.00;100405.59;7397547;19;20039;-90
2022/07/12 08:21:29;;;;;;;1.60;0.77;;;;;;;24.57;100.00;100402.03;7395271;19;20017;-90
2022/07/12 08:23:56;;;;;;;2.17;0.20;;;;;;;24.53;100.00;100408.09;7404456;19;20018;-88
2022/07/12 08:26:22;;;;;;;0.80;0.20;;;;;;;24.55;100.00;100404.69;7403326;19;20019;-88
2022/07/12 08:28:48;;;;;;;1.70;0.10;;;;;;;24.60;100.00;100407.34;7397973;19;20455;-89
2022/07/12 08:31:15;;;;;;;1.30;0.30;;;;;;;24.73;100.00;100415.06;7388577;19;20029;-89
2022/07/12 08:33:41;;;;;;;1.95;0.30;;;;;;;24.83;100.00;100418.94;7389171;19;20019;-89
2022/07/12 08:36:09;;;;;;;4.72;0.40;;;;;;;24.99;100.00;100417.69;7389498;19;20492;-90
2022/07/12 08:38:40;;;;;;;0.95;0.35;;;;;;;25.15;100.00;100419.28;7390010;19;20575;-89
2022/07/12 08:41:07;;;;;;;0.65;0.40;;;;;;;25.25;100.00;100425.97;7391388;19;20030;-89
2022/07/12 08:43:35;;;;;;;0.35;0.10;;;;;;;25.40;100.00;100431.72;7393793;19;20015;-89
2022/07/12 08:46:05;;;;;;;0.63;0.10;;;;;;;25.53;100.00;100431.59;7389900;19;20014;-89
2022/07/12 08:48:35;;;;;;;0.35;0.10;;;;;;;25.60;100.00;100420.78;7389931;19;20507;-91
2022/07/12 08:51:13;;;;;;;0.88;0.08;;;;;;;25.67;100.00;100414.31;7393997;19;20026;-91
2022/07/12 08:53:40;;;;;;;0.52;0.10;;;;;;;25.65;100.00;100416.97;7390208;19;20014;-92
2022/07/12 08:56:27;;;;;;;4.13;0.17;;;;;;;25.62;100.00;100409.56;7387392;19;20022;-92
2022/07/12 08:59:11;;;;;;;0.20;0.15;;;;;;;25.46;100.00;100412.38;7390873;19;20074;-86
2022/07/12 09:01:51;;;;;;;0.10;0.10;;;;;;;25.43;100.00;100419.22;7384719;19;20547;-83
2022/07/12 09:04:24;;;;;;;4.10;0.20;;;;;;;25.37;100.00;100423.53;7382518;19;20010;-84
2022/07/12 09:06:51;;;;;;;3.03;0.15;;;;;;;25.24;100.00;100423.69;7382335;19;20472;-86
2022/07/12 09:09:27;;;;;;;1.20;0.50;;;;;;;25.20;100.00;100426.13;7390960;19;20011;-84
2022/07/12 09:11:53;;;;;;;2.40;0.13;;;;;;;25.13;100.00;100413.38;7389961;19;20026;-84
2022/07/12 09:14:20;;;;;;;0.40;0.13;;;;;;;25.14;100.00;100414.91;7389712;19;20074;-84
2022/07/12 09:17:09;;;;;;;0.38;0.10;;;;;;;25.11;100.00;100415.25;7388950;19;20030;-85
2022/07/12 09:19:36;;;;;;;0.38;0.20;;;;;;;25.03;100.00;100414.47;7391899;19;20026;-84
2022/07/12 09:22:03;;;;;;;0.20;0.10;;;;;;;24.97;100.00;100400.38;7247572;19;2875485;-83
2022/07/12 09:24:30;;;;;;;9.02;0.50;;;;;;;25.04;100.00;100398.88;7391521;19;20015;-84
2022/07/12 09:27:04;;;;;;;0.32;0.30;;;;;;;25.03;100.00;100403.84;7394649;19;20106;-84
2022/07/12 09:29:31;;;;;;;0.35;0.10;;;;;;;25.11;100.00;100409.56;7392423;19;20045;-84
2022/07/12 09:37:27;;;;;;;0.93;0.10;;;;;;;25.51;100.00;100402.13;7392335;19;20022;-82
2022/07/12 09:39:54;;;;;;;4.10;0.20;;;;;;;25.68;100.00;100415.84;7394372;19;20041;-85
2022/07/12 09:42:21;;;;;;;0.22;0.10;;;;;;;25.66;100.00;100402.16;7394374;19;20025;-83
2022/07/12 09:44:49;;;;;;;0.15;0.13;;;;;;;25.76;100.00;100397.41;7390524;19;20049;-83
2022/07/12 09:47:18;;;;;;;0.30;0.10;;;;;;;25.85;100.00;100401.81;7388730;19;20018;-84
2022/07/12 09:49:45;;;;;;;0.55;0.13;;;;;;;25.81;100.00;100390.78;7394457;19;20473;-88
2022/07/12 09:52:27;;;;;;;1.33;0.15;;;;;;;25.64;100.00;100398.34;7395101;19;20014;-83
2022/07/12 09:54:55;;;;;;;1.27;0.10;;;;;;;25.43;100.00;100407.03;7391464;19;20021;-83
2022/07/12 09:57:26;;;;;;;2.92;0.10;;;;;;;25.34;100.00;100408.31;7390331;19;20128;-84
2022/07/12 09:59:53;;;;;;;0.32;0.10;;;;;;;25.29;100.00;100399.94;7395781;19;20018;-84
2022/07/12 10:02:21;;;;;;;0.28;0.10;;;;;;;25.31;100.00;100403.75;7392124;19;20027;-82
2022/07/12 10:04:48;;;;;;;1.60;0.10;;;;;;;25.41;100.00;100407.59;7391113;19;20014;-86
2022/07/12 10:07:15;;;;;;;4.50;0.35;;;;;;;25.46;100.00;100418.09;7389513;19;20018;-83
2022/07/12 10:09:44;;;;;;;0.30;0.10;;;;;;;25.48;100.00;100415.44;7392274;19;20095;-83
2022/07/12 10:12:15;;;;;;;0.57;0.10;;;;;;;25.49;100.00;100414.09;7390502;19;20532;-82
2022/07/12 10:14:43;;;;;;;2.75;0.20;;;;;;;25.58;100.00;100419.25;7390380;19;20014;-83
2022/07/12 10:17:10;;;;;;;0.65;0.17;;;;;;;25.72;100.00;100434.13;7392945;19;20016;-87
2022/07/12 10:19:37;;;;;;;0.43;0.22;;;;;;;25.79;100.00;100438.31;7399321;19;20014;-86
2022/07/12 10:22:06;;;;;;;0.50;0.30;;;;;;;25.90;100.00;100443.69;7398636;19;20081;-86
2022/07/12 10:24:32;;;;;;;0.30;0.10;;;;;;;26.11;100.00;100458.56;7394577;19;20018;-85
2022/07/12 10:27:32;;;;;;;5.93;0.40;;;;;;;26.37;100.00;100469.63;7393073;19;20014;-85
2022/07/12 10:30:27;;;;;;;4.20;0.20;;;;;;;26.59;100.00;100465.22;7392819;19;20010;-83
2022/07/12 10:32:57;;;;;;;0.10;0.10;;;;;;;26.46;100.00;100454.00;7394696;19;20019;-86
2022/07/12 10:35:28;;;;;;;1.13;0.13;;;;;;;26.23;100.00;100454.00;7393595;19;20026;-86
2022/07/12 10:38:14;;;;;;;3.40;0.10;;;;;;;26.00;100.00;100447.50;7392616;19;20020;-86
2022/07/12 10:40:44;;;;;;;4.43;0.30;;;;;;;25.86;100.00;100443.28;7396591;19;20445;-86
2022/07/12 10:43:14;;;;;;;2.97;0.10;;;;;;;25.77;100.00;100438.13;7392375;19;20015;-86
2022/07/12 10:45:45;;;;;;;0.30;0.10;;;;;;;25.68;100.00;100433.75;7387475;19;20476;-86
2022/07/12 10:48:14;;;;;;;0.30;0.10;;;;;;;25.60;100.00;100449.31;7385940;19;20010;-87
2022/07/12 10:50:55;;;;;;;0.30;0.10;;;;;;;25.62;100.00;100446.66;7392055;19;20014;-87
2022/07/12 10:53:42;;;;;;;0.25;0.20;;;;;;;25.69;100.00;100435.25;7394888;19;20021;-87
2022/07/12 10:56:25;;;;;;;1.05;0.10;;;;;;;25.91;100.00;100439.47;7391075;19;20025;-86
2022/07/12 10:59:03;;;;;;;1.13;0.20;;;;;;;26.06;100.00;100443.13;7397413;19;20453;-87
2022/07/12 11:01:31;;;;;;;0.10;0.00;;;;;;;26.13;100.00;100447.34;7399702;19;20022;-89
2022/07/12 11:04:10;;;;;;;2.10;0.17;;;;;;;26.14;100.00;100446.03;7397557;19;20018;-88
2022/07/12 11:06:44;;;;;;;1.27;0.13;;;;;;;26.20;100.00;100446.59;7396997;19;20011;-84
2022/07/12 11:09:17;;;;;;;0.20;0.00;;;;;;;26.26;100.00;100442.22;7399054;19;20070;-91
2022/07/12 11:12:02;;;;;;;0.32;0.10;;;;;;;26.37;100.00;100446.00;7400213;19;20011;-90
2022/07/12 11:14:30;;;;;;;0.10;0.10;;;;;;;26.45;100.00;100453.25;7399581;19;20078;-91
2022/07/12 11:17:04;;;;;;;0.38;0.20;;;;;;;26.51;100.00;100456.66;7402075;19;20550;-91
2022/07/12 11:19:31;;;;;;;0.10;0.10;;;;;;;26.67;100.00;100458.16;7402759;19;20544;-91
2022/07/12 11:21:58;;;;;;;0.30;0.20;;;;;;;26.72;100.00;100457.22;7405848;19;20750;-88
2022/07/12 11:24:29;;;;;;;2.38;0.20;;;;;;;26.76;100.00;100459.72;7398558;19;20014;-89
2022/07/12 11:26:55;;;;;;;1.15;0.10;;;;;;;26.80;100.00;100448.66;7399361;19;20357;-88
2022/07/12 11:29:22;;;;;;;0.40;0.30;;;;;;;26.84;100.00;100449.78;7404701;19;20028;-89
2022/07/12 11:31:49;;;;;;;1.33;0.10;;;;;;;26.93;100.00;100446.34;7407703;19;20015;-90
2022/07/12 11:34:25;;;;;;;0.63;0.20;;;;;;;26.88;100.00;100438.72;7409158;19;20430;-90